sensor_id;sensor_type;location;lat;lon;timestamp;temperature;humidity
45785;DHT22;31489;51.404;5.474;2024-03-02T00:01:44;12.80;67.70
45785;DHT22;31489;51.404;5.474;2024-03-02T00:04:09;12.80;68.00
45785;DHT22;31489;51.404;5.474;2024-03-02T00:06:35;12.80;68.20
45785;DHT22;31489;51.404;5.474;2024-03-02T00:09:01;12.80;68.30
45785;DHT22;31489;51.404;5.474;2024-03-02T00:11:27;12.80;68.30
45785;DHT22;31489;51.404;5.474;2024-03-02T00:13:53;12.80;69.40
45785;DHT22;31489;51.404;5.474;2024-03-02T00:16:19;12.70;69.90
45785;DHT22;31489;51.404;5.474;2024-03-02T00:18:49;12.70;70.30
45785;DHT22;31489;51.404;5.474;2024-03-02T00:21:15;12.50;70.70
45785;DHT22;31489;51.404;5.474;2024-03-02T00:23:43;12.40;71.50
45785;DHT22;31489;51.404;5.474;2024-03-02T00:26:11;12.30;71.60
45785;DHT22;31489;51.404;5.474;2024-03-02T00:28:39;12.10;72.10
45785;DHT22;31489;51.404;5.474;2024-03-02T00:31:14;12.00;72.50
45785;DHT22;31489;51.404;5.474;2024-03-02T00:33:49;11.80;73.30
45785;DHT22;31489;51.404;5.474;2024-03-02T00:36:20;11.70;73.60
45785;DHT22;31489;51.404;5.474;2024-03-02T00:38:49;11.60;73.50
45785;DHT22;31489;51.404;5.474;2024-03-02T00:41:27;11.50;73.80
45785;DHT22;31489;51.404;5.474;2024-03-02T00:43:56;11.40;74.90
45785;DHT22;31489;51.404;5.474;2024-03-02T00:46:24;11.40;74.50
45785;DHT22;31489;51.404;5.474;2024-03-02T00:48:57;11.20;74.90
45785;DHT22;31489;51.404;5.474;2024-03-02T00:51:26;11.20;75.60
45785;DHT22;31489;51.404;5.474;2024-03-02T00:53:55;11.20;75.50
45785;DHT22;31489;51.404;5.474;2024-03-02T00:56:22;11.20;75.90
45785;DHT22;31489;51.404;5.474;2024-03-02T00:58:49;11.20;75.90
45785;DHT22;31489;51.404;5.474;2024-03-02T01:01:14;11.20;76.10
45785;DHT22;31489;51.404;5.474;2024-03-02T01:03:41;11.10;76.00
45785;DHT22;31489;51.404;5.474;2024-03-02T01:06:07;11.20;76.20
45785;DHT22;31489;51.404;5.474;2024-03-02T01:08:34;11.10;76.10
45785;DHT22;31489;51.404;5.474;2024-03-02T01:11:00;11.20;76.30
45785;DHT22;31489;51.404;5.474;2024-03-02T01:13:26;11.20;76.40
45785;DHT22;31489;51.404;5.474;2024-03-02T01:15:52;11.20;76.40
45785;DHT22;31489;51.404;5.474;2024-03-02T01:18:20;11.30;76.60
45785;DHT22;31489;51.404;5.474;2024-03-02T01:20:47;11.30;76.60
45785;DHT22;31489;51.404;5.474;2024-03-02T01:23:13;11.30;76.50
45785;DHT22;31489;51.404;5.474;2024-03-02T01:25:39;11.30;76.40
45785;DHT22;31489;51.404;5.474;2024-03-02T01:28:05;11.40;76.30
45785;DHT22;31489;51.404;5.474;2024-03-02T01:30:31;11.40;76.10
45785;DHT22;31489;51.404;5.474;2024-03-02T01:32:56;11.40;75.90
45785;DHT22;31489;51.404;5.474;2024-03-02T01:35:24;11.40;75.70
45785;DHT22;31489;51.404;5.474;2024-03-02T01:37:49;11.50;75.70
45785;DHT22;31489;51.404;5.474;2024-03-02T01:40:15;11.40;75.20
45785;DHT22;31489;51.404;5.474;2024-03-02T01:42:41;11.50;75.20
45785;DHT22;31489;51.404;5.474;2024-03-02T01:45:09;11.50;75.40
45785;DHT22;31489;51.404;5.474;2024-03-02T01:47:35;11.50;75.40
45785;DHT22;31489;51.404;5.474;2024-03-02T01:50:01;11.50;75.20
45785;DHT22;31489;51.404;5.474;2024-03-02T01:52:27;11.60;75.80
45785;DHT22;31489;51.404;5.474;2024-03-02T01:54:53;11.60;75.30
45785;DHT22;31489;51.404;5.474;2024-03-02T01:57:19;11.50;75.00
45785;DHT22;31489;51.404;5.474;2024-03-02T01:59:45;11.50;74.70
45785;DHT22;31489;51.404;5.474;2024-03-02T02:02:13;11.50;74.80
45785;DHT22;31489;51.404;5.474;2024-03-02T02:04:38;11.50;74.90
45785;DHT22;31489;51.404;5.474;2024-03-02T02:07:04;11.50;75.30
45785;DHT22;31489;51.404;5.474;2024-03-02T02:09:30;11.50;75.70
45785;DHT22;31489;51.404;5.474;2024-03-02T02:11:56;11.50;75.90
45785;DHT22;31489;51.404;5.474;2024-03-02T02:14:21;11.50;75.80
45785;DHT22;31489;51.404;5.474;2024-03-02T02:16:47;11.50;75.90
45785;DHT22;31489;51.404;5.474;2024-03-02T02:19:12;11.50;76.00
45785;DHT22;31489;51.404;5.474;2024-03-02T02:21:41;11.50;75.80
45785;DHT22;31489;51.404;5.474;2024-03-02T02:24:07;11.50;75.80
45785;DHT22;31489;51.404;5.474;2024-03-02T02:26:32;11.50;75.70
45785;DHT22;31489;51.404;5.474;2024-03-02T02:28:58;11.50;75.80
45785;DHT22;31489;51.404;5.474;2024-03-02T02:31:24;11.40;75.80
45785;DHT22;31489;51.404;5.474;2024-03-02T02:33:49;11.40;76.00
45785;DHT22;31489;51.404;5.474;2024-03-02T02:36:15;11.40;76.00
45785;DHT22;31489;51.404;5.474;2024-03-02T02:38:44;11.40;76.20
45785;DHT22;31489;51.404;5.474;2024-03-02T02:41:12;11.40;76.40
45785;DHT22;31489;51.404;5.474;2024-03-02T02:43:38;11.40;76.40
45785;DHT22;31489;51.404;5.474;2024-03-02T02:46:05;11.40;76.40
45785;DHT22;31489;51.404;5.474;2024-03-02T02:48:31;11.40;77.00
45785;DHT22;31489;51.404;5.474;2024-03-02T02:50:56;11.40;76.40
45785;DHT22;31489;51.404;5.474;2024-03-02T02:53:22;11.40;76.20
45785;DHT22;31489;51.404;5.474;2024-03-02T02:55:48;11.40;76.30
45785;DHT22;31489;51.404;5.474;2024-03-02T02:58:13;11.40;76.20
45785;DHT22;31489;51.404;5.474;2024-03-02T03:00:40;11.40;75.80
45785;DHT22;31489;51.404;5.474;2024-03-02T03:03:05;11.40;75.60
45785;DHT22;31489;51.404;5.474;2024-03-02T03:05:31;11.40;75.50
45785;DHT22;31489;51.404;5.474;2024-03-02T03:07:57;11.30;75.30
45785;DHT22;31489;51.404;5.474;2024-03-02T03:10:22;11.30;75.40
45785;DHT22;31489;51.404;5.474;2024-03-02T03:12:49;11.30;75.40
45785;DHT22;31489;51.404;5.474;2024-03-02T03:15:15;11.30;75.30
45785;DHT22;31489;51.404;5.474;2024-03-02T03:17:42;11.30;75.30
45785;DHT22;31489;51.404;5.474;2024-03-02T03:20:08;11.20;75.20
45785;DHT22;31489;51.404;5.474;2024-03-02T03:22:37;11.20;75.20
45785;DHT22;31489;51.404;5.474;2024-03-02T03:25:05;11.20;75.20
45785;DHT22;31489;51.404;5.474;2024-03-02T03:27:32;11.20;75.10
45785;DHT22;31489;51.404;5.474;2024-03-02T03:29:57;11.20;75.40
45785;DHT22;31489;51.404;5.474;2024-03-02T03:32:23;11.20;75.50
45785;DHT22;31489;51.404;5.474;2024-03-02T03:34:49;11.20;75.60
45785;DHT22;31489;51.404;5.474;2024-03-02T03:37:15;11.20;75.60
45785;DHT22;31489;51.404;5.474;2024-03-02T03:39:40;11.20;75.60
45785;DHT22;31489;51.404;5.474;2024-03-02T03:42:06;11.30;75.40
45785;DHT22;31489;51.404;5.474;2024-03-02T03:44:32;11.30;75.50
45785;DHT22;31489;51.404;5.474;2024-03-02T03:46:59;11.30;75.30
45785;DHT22;31489;51.404;5.474;2024-03-02T03:49:24;11.30;75.40
45785;DHT22;31489;51.404;5.474;2024-03-02T03:51:50;11.30;75.10
45785;DHT22;31489;51.404;5.474;2024-03-02T03:54:15;11.30;75.10
45785;DHT22;31489;51.404;5.474;2024-03-02T03:56:41;11.30;75.00
45785;DHT22;31489;51.404;5.474;2024-03-02T03:59:09;11.30;74.90
45785;DHT22;31489;51.404;5.474;2024-03-02T04:01:35;11.30;74.90
45785;DHT22;31489;51.404;5.474;2024-03-02T04:04:01;11.30;74.80
45785;DHT22;31489;51.404;5.474;2024-03-02T04:06:29;11.30;74.90
45785;DHT22;31489;51.404;5.474;2024-03-02T04:08:55;11.30;74.80
45785;DHT22;31489;51.404;5.474;2024-03-02T04:11:23;11.30;74.60
45785;DHT22;31489;51.404;5.474;2024-03-02T04:13:49;11.20;74.30
45785;DHT22;31489;51.404;5.474;2024-03-02T04:16:14;11.30;74.40
45785;DHT22;31489;51.404;5.474;2024-03-02T04:18:40;11.20;74.40
45785;DHT22;31489;51.404;5.474;2024-03-02T04:21:06;11.20;74.50
45785;DHT22;31489;51.404;5.474;2024-03-02T04:23:31;11.20;74.50
45785;DHT22;31489;51.404;5.474;2024-03-02T04:25:57;11.10;74.60
45785;DHT22;31489;51.404;5.474;2024-03-02T04:28:22;11.10;74.50
45785;DHT22;31489;51.404;5.474;2024-03-02T04:30:48;11.10;74.50
45785;DHT22;31489;51.404;5.474;2024-03-02T04:33:13;11.10;74.50
45785;DHT22;31489;51.404;5.474;2024-03-02T04:35:39;11.20;74.40
45785;DHT22;31489;51.404;5.474;2024-03-02T04:38:05;11.10;74.40
45785;DHT22;31489;51.404;5.474;2024-03-02T04:40:30;11.10;74.40
45785;DHT22;31489;51.404;5.474;2024-03-02T04:42:57;11.10;74.70
45785;DHT22;31489;51.404;5.474;2024-03-02T04:45:24;11.10;74.70
45785;DHT22;31489;51.404;5.474;2024-03-02T04:47:50;11.10;74.60
45785;DHT22;31489;51.404;5.474;2024-03-02T04:50:15;11.10;74.60
45785;DHT22;31489;51.404;5.474;2024-03-02T04:52:41;11.20;74.80
45785;DHT22;31489;51.404;5.474;2024-03-02T04:55:07;11.20;74.90
45785;DHT22;31489;51.404;5.474;2024-03-02T04:57:42;11.20;74.70
45785;DHT22;31489;51.404;5.474;2024-03-02T05:00:08;11.20;74.50
45785;DHT22;31489;51.404;5.474;2024-03-02T05:02:34;11.20;74.30
45785;DHT22;31489;51.404;5.474;2024-03-02T05:05:00;11.20;74.20
45785;DHT22;31489;51.404;5.474;2024-03-02T05:07:26;11.20;74.20
45785;DHT22;31489;51.404;5.474;2024-03-02T05:09:52;11.20;74.20
45785;DHT22;31489;51.404;5.474;2024-03-02T05:12:17;11.10;74.20
45785;DHT22;31489;51.404;5.474;2024-03-02T05:15:01;11.10;74.30
45785;DHT22;31489;51.404;5.474;2024-03-02T05:17:27;11.10;74.30
45785;DHT22;31489;51.404;5.474;2024-03-02T05:19:53;11.10;74.30
45785;DHT22;31489;51.404;5.474;2024-03-02T05:22:18;11.10;74.40
45785;DHT22;31489;51.404;5.474;2024-03-02T05:24:44;11.00;74.50
45785;DHT22;31489;51.404;5.474;2024-03-02T05:27:09;11.00;74.50
45785;DHT22;31489;51.404;5.474;2024-03-02T05:29:35;11.00;74.60
45785;DHT22;31489;51.404;5.474;2024-03-02T05:32:00;11.00;74.60
45785;DHT22;31489;51.404;5.474;2024-03-02T05:34:26;11.00;74.60
45785;DHT22;31489;51.404;5.474;2024-03-02T05:36:51;11.00;74.70
45785;DHT22;31489;51.404;5.474;2024-03-02T05:39:17;11.00;74.80
45785;DHT22;31489;51.404;5.474;2024-03-02T05:41:42;11.00;74.70
45785;DHT22;31489;51.404;5.474;2024-03-02T05:44:08;11.00;74.80
45785;DHT22;31489;51.404;5.474;2024-03-02T05:46:34;11.10;74.80
45785;DHT22;31489;51.404;5.474;2024-03-02T05:49:00;11.00;74.80
45785;DHT22;31489;51.404;5.474;2024-03-02T05:51:26;11.10;74.50
45785;DHT22;31489;51.404;5.474;2024-03-02T05:53:53;11.10;74.30
45785;DHT22;31489;51.404;5.474;2024-03-02T05:56:18;11.10;74.10
45785;DHT22;31489;51.404;5.474;2024-03-02T05:58:44;11.00;74.20
45785;DHT22;31489;51.404;5.474;2024-03-02T06:01:28;11.00;74.20
45785;DHT22;31489;51.404;5.474;2024-03-02T06:03:57;11.00;74.20
45785;DHT22;31489;51.404;5.474;2024-03-02T06:06:26;11.00;74.20
45785;DHT22;31489;51.404;5.474;2024-03-02T06:08:52;11.00;74.20
45785;DHT22;31489;51.404;5.474;2024-03-02T06:11:19;11.00;74.40
45785;DHT22;31489;51.404;5.474;2024-03-02T06:13:45;11.00;74.30
45785;DHT22;31489;51.404;5.474;2024-03-02T06:16:10;11.00;74.30
45785;DHT22;31489;51.404;5.474;2024-03-02T06:18:36;11.00;74.30
45785;DHT22;31489;51.404;5.474;2024-03-02T06:21:02;11.00;74.50
45785;DHT22;31489;51.404;5.474;2024-03-02T06:23:28;11.00;74.30
45785;DHT22;31489;51.404;5.474;2024-03-02T06:25:57;11.00;74.60
45785;DHT22;31489;51.404;5.474;2024-03-02T06:28:23;11.00;74.30
45785;DHT22;31489;51.404;5.474;2024-03-02T06:30:48;11.00;74.40
45785;DHT22;31489;51.404;5.474;2024-03-02T06:33:14;11.00;74.30
45785;DHT22;31489;51.404;5.474;2024-03-02T06:35:40;11.00;74.30
45785;DHT22;31489;51.404;5.474;2024-03-02T06:38:06;11.00;74.40
45785;DHT22;31489;51.404;5.474;2024-03-02T06:40:32;11.00;74.20
45785;DHT22;31489;51.404;5.474;2024-03-02T06:42:57;11.00;74.20
45785;DHT22;31489;51.404;5.474;2024-03-02T06:45:23;11.00;74.20
45785;DHT22;31489;51.404;5.474;2024-03-02T06:47:49;10.90;74.30
45785;DHT22;31489;51.404;5.474;2024-03-02T06:50:15;10.90;74.40
45785;DHT22;31489;51.404;5.474;2024-03-02T06:52:40;10.90;74.40
45785;DHT22;31489;51.404;5.474;2024-03-02T06:55:06;10.90;74.40
45785;DHT22;31489;51.404;5.474;2024-03-02T06:57:32;10.90;74.30
45785;DHT22;31489;51.404;5.474;2024-03-02T06:59:57;10.90;74.40
45785;DHT22;31489;51.404;5.474;2024-03-02T07:02:24;10.90;74.40
45785;DHT22;31489;51.404;5.474;2024-03-02T07:04:52;10.90;74.30
45785;DHT22;31489;51.404;5.474;2024-03-02T07:07:18;10.90;74.40
45785;DHT22;31489;51.404;5.474;2024-03-02T07:09:43;10.90;74.40
45785;DHT22;31489;51.404;5.474;2024-03-02T07:12:09;11.00;74.40
45785;DHT22;31489;51.404;5.474;2024-03-02T07:14:35;11.00;74.40
45785;DHT22;31489;51.404;5.474;2024-03-02T07:17:19;10.90;74.40
45785;DHT22;31489;51.404;5.474;2024-03-02T07:19:45;11.00;74.50
45785;DHT22;31489;51.404;5.474;2024-03-02T07:22:10;11.00;74.50
45785;DHT22;31489;51.404;5.474;2024-03-02T07:24:46;11.00;74.40
45785;DHT22;31489;51.404;5.474;2024-03-02T07:27:13;11.00;74.50
45785;DHT22;31489;51.404;5.474;2024-03-02T07:29:39;11.00;74.50
45785;DHT22;31489;51.404;5.474;2024-03-02T07:32:06;11.00;74.50
45785;DHT22;31489;51.404;5.474;2024-03-02T07:34:32;11.00;74.20
45785;DHT22;31489;51.404;5.474;2024-03-02T07:36:57;11.00;74.30
45785;DHT22;31489;51.404;5.474;2024-03-02T07:39:24;11.00;74.10
45785;DHT22;31489;51.404;5.474;2024-03-02T07:41:49;11.00;74.10
45785;DHT22;31489;51.404;5.474;2024-03-02T07:44:15;11.00;73.90
45785;DHT22;31489;51.404;5.474;2024-03-02T07:46:48;11.00;73.80
45785;DHT22;31489;51.404;5.474;2024-03-02T07:49:16;11.00;73.50
45785;DHT22;31489;51.404;5.474;2024-03-02T07:51:42;11.00;73.60
45785;DHT22;31489;51.404;5.474;2024-03-02T07:54:08;11.00;73.60
45785;DHT22;31489;51.404;5.474;2024-03-02T07:56:34;11.00;73.50
45785;DHT22;31489;51.404;5.474;2024-03-02T07:59:03;11.00;73.40
45785;DHT22;31489;51.404;5.474;2024-03-02T08:01:31;10.90;73.60
45785;DHT22;31489;51.404;5.474;2024-03-02T08:03:57;10.90;73.30
45785;DHT22;31489;51.404;5.474;2024-03-02T08:06:27;11.00;73.50
45785;DHT22;31489;51.404;5.474;2024-03-02T08:08:54;10.90;73.50
45785;DHT22;31489;51.404;5.474;2024-03-02T08:11:20;10.90;73.50
45785;DHT22;31489;51.404;5.474;2024-03-02T08:13:46;10.90;73.70
45785;DHT22;31489;51.404;5.474;2024-03-02T08:16:15;10.90;73.90
45785;DHT22;31489;51.404;5.474;2024-03-02T08:18:42;11.00;73.70
45785;DHT22;31489;51.404;5.474;2024-03-02T08:21:07;11.00;73.90
45785;DHT22;31489;51.404;5.474;2024-03-02T08:23:35;11.00;74.00
45785;DHT22;31489;51.404;5.474;2024-03-02T08:26:03;11.10;73.90
45785;DHT22;31489;51.404;5.474;2024-03-02T08:28:28;11.10;74.00
45785;DHT22;31489;51.404;5.474;2024-03-02T08:30:54;11.10;74.00
45785;DHT22;31489;51.404;5.474;2024-03-02T08:33:19;11.20;74.10
45785;DHT22;31489;51.404;5.474;2024-03-02T08:35:45;11.20;74.00
45785;DHT22;31489;51.404;5.474;2024-03-02T08:38:12;11.20;74.20
45785;DHT22;31489;51.404;5.474;2024-03-02T08:40:37;11.30;74.20
45785;DHT22;31489;51.404;5.474;2024-03-02T08:43:03;11.30;74.10
45785;DHT22;31489;51.404;5.474;2024-03-02T08:45:29;11.40;74.10
45785;DHT22;31489;51.404;5.474;2024-03-02T08:47:55;11.40;74.10
45785;DHT22;31489;51.404;5.474;2024-03-02T08:50:20;11.40;74.00
45785;DHT22;31489;51.404;5.474;2024-03-02T08:52:46;11.50;73.90
45785;DHT22;31489;51.404;5.474;2024-03-02T08:55:11;11.50;73.80
45785;DHT22;31489;51.404;5.474;2024-03-02T08:57:37;11.60;73.80
45785;DHT22;31489;51.404;5.474;2024-03-02T09:00:03;11.60;73.70
45785;DHT22;31489;51.404;5.474;2024-03-02T09:02:30;11.70;73.70
45785;DHT22;31489;51.404;5.474;2024-03-02T09:04:56;11.70;73.70
45785;DHT22;31489;51.404;5.474;2024-03-02T09:07:22;11.80;73.40
45785;DHT22;31489;51.404;5.474;2024-03-02T09:09:48;11.90;73.30
45785;DHT22;31489;51.404;5.474;2024-03-02T09:12:14;11.90;73.20
45785;DHT22;31489;51.404;5.474;2024-03-02T09:14:40;12.00;73.10
45785;DHT22;31489;51.404;5.474;2024-03-02T09:17:06;12.00;72.70
45785;DHT22;31489;51.404;5.474;2024-03-02T09:19:35;12.00;72.50
45785;DHT22;31489;51.404;5.474;2024-03-02T09:22:01;12.10;72.80
45785;DHT22;31489;51.404;5.474;2024-03-02T09:24:28;12.10;72.70
45785;DHT22;31489;51.404;5.474;2024-03-02T09:26:54;12.20;72.50
45785;DHT22;31489;51.404;5.474;2024-03-02T09:29:20;12.20;72.30
45785;DHT22;31489;51.404;5.474;2024-03-02T09:31:46;12.30;72.40
45785;DHT22;31489;51.404;5.474;2024-03-02T09:34:12;12.30;72.00
45785;DHT22;31489;51.404;5.474;2024-03-02T09:36:39;12.40;72.00
45785;DHT22;31489;51.404;5.474;2024-03-02T09:39:07;12.50;71.80
45785;DHT22;31489;51.404;5.474;2024-03-02T09:41:36;12.50;72.10
45785;DHT22;31489;51.404;5.474;2024-03-02T09:44:02;12.60;71.20
45785;DHT22;31489;51.404;5.474;2024-03-02T09:46:28;12.60;70.60
45785;DHT22;31489;51.404;5.474;2024-03-02T09:48:54;12.70;70.90
45785;DHT22;31489;51.404;5.474;2024-03-02T09:51:20;12.80;70.40
45785;DHT22;31489;51.404;5.474;2024-03-02T09:53:45;12.80;70.50
45785;DHT22;31489;51.404;5.474;2024-03-02T09:56:12;12.90;70.00
45785;DHT22;31489;51.404;5.474;2024-03-02T09:58:39;12.90;69.70
45785;DHT22;31489;51.404;5.474;2024-03-02T10:01:07;13.00;69.40
45785;DHT22;31489;51.404;5.474;2024-03-02T10:03:36;13.00;69.10
45785;DHT22;31489;51.404;5.474;2024-03-02T10:08:47;13.20;69.20
45785;DHT22;31489;51.404;5.474;2024-03-02T10:11:30;13.30;69.70
45785;DHT22;31489;51.404;5.474;2024-03-02T10:14:09;13.30;68.50
45785;DHT22;31489;51.404;5.474;2024-03-02T10:16:43;13.50;67.70
45785;DHT22;31489;51.404;5.474;2024-03-02T10:19:19;13.60;67.30
45785;DHT22;31489;51.404;5.474;2024-03-02T10:21:51;13.70;67.80
45785;DHT22;31489;51.404;5.474;2024-03-02T10:24:17;13.90;69.00
45785;DHT22;31489;51.404;5.474;2024-03-02T10:26:43;14.10;68.80
45785;DHT22;31489;51.404;5.474;2024-03-02T10:29:10;14.50;69.60
45785;DHT22;31489;51.404;5.474;2024-03-02T10:31:40;14.80;69.60
45785;DHT22;31489;51.404;5.474;2024-03-02T10:34:07;15.30;69.20
45785;DHT22;31489;51.404;5.474;2024-03-02T10:36:34;15.80;68.80
45785;DHT22;31489;51.404;5.474;2024-03-02T10:39:04;16.30;67.90
45785;DHT22;31489;51.404;5.474;2024-03-02T10:41:36;16.80;67.40
45785;DHT22;31489;51.404;5.474;2024-03-02T10:44:06;17.30;66.70
45785;DHT22;31489;51.404;5.474;2024-03-02T10:46:37;17.80;65.00
45785;DHT22;31489;51.404;5.474;2024-03-02T10:49:05;18.30;65.10
45785;DHT22;31489;51.404;5.474;2024-03-02T10:51:32;18.80;64.40
45785;DHT22;31489;51.404;5.474;2024-03-02T10:53:59;19.30;64.20
45785;DHT22;31489;51.404;5.474;2024-03-02T10:56:33;19.70;63.70
45785;DHT22;31489;51.404;5.474;2024-03-02T11:01:47;20.70;60.00
45785;DHT22;31489;51.404;5.474;2024-03-02T11:04:18;21.10;60.60
45785;DHT22;31489;51.404;5.474;2024-03-02T11:06:48;21.50;60.10
45785;DHT22;31489;51.404;5.474;2024-03-02T11:09:14;21.90;57.90
45785;DHT22;31489;51.404;5.474;2024-03-02T11:11:43;22.30;59.70
45785;DHT22;31489;51.404;5.474;2024-03-02T11:14:17;22.80;57.50
45785;DHT22;31489;51.404;5.474;2024-03-02T11:16:47;23.10;54.80
45785;DHT22;31489;51.404;5.474;2024-03-02T11:19:14;23.40;55.90
45785;DHT22;31489;51.404;5.474;2024-03-02T11:21:41;23.60;53.90
45785;DHT22;31489;51.404;5.474;2024-03-02T11:26:58;23.90;51.90
45785;DHT22;31489;51.404;5.474;2024-03-02T11:32:04;24.10;51.10
45785;DHT22;31489;51.404;5.474;2024-03-02T11:34:31;24.30;52.50
45785;DHT22;31489;51.404;5.474;2024-03-02T11:36:58;24.50;51.60
45785;DHT22;31489;51.404;5.474;2024-03-02T11:39:25;24.70;51.10
45785;DHT22;31489;51.404;5.474;2024-03-02T11:41:51;25.00;50.20
45785;DHT22;31489;51.404;5.474;2024-03-02T11:44:17;25.10;49.70
45785;DHT22;31489;51.404;5.474;2024-03-02T11:46:45;25.20;49.50
45785;DHT22;31489;51.404;5.474;2024-03-02T11:49:15;25.40;48.10
45785;DHT22;31489;51.404;5.474;2024-03-02T11:52:00;25.40;46.70
45785;DHT22;31489;51.404;5.474;2024-03-02T11:54:28;25.50;45.20
45785;DHT22;31489;51.404;5.474;2024-03-02T11:56:56;25.60;46.70
45785;DHT22;31489;51.404;5.474;2024-03-02T11:59:24;25.60;46.80
45785;DHT22;31489;51.404;5.474;2024-03-02T12:01:50;25.50;46.30
45785;DHT22;31489;51.404;5.474;2024-03-02T12:04:15;25.50;46.10
45785;DHT22;31489;51.404;5.474;2024-03-02T12:06:41;25.50;45.90
45785;DHT22;31489;51.404;5.474;2024-03-02T12:09:09;25.40;45.20
45785;DHT22;31489;51.404;5.474;2024-03-02T12:11:40;25.30;44.70
45785;DHT22;31489;51.404;5.474;2024-03-02T12:14:11;25.20;45.10
45785;DHT22;31489;51.404;5.474;2024-03-02T12:16:38;25.10;44.00
45785;DHT22;31489;51.404;5.474;2024-03-02T12:19:07;25.00;44.80
45785;DHT22;31489;51.404;5.474;2024-03-02T12:21:36;24.90;44.80
45785;DHT22;31489;51.404;5.474;2024-03-02T12:24:03;24.70;43.40
45785;DHT22;31489;51.404;5.474;2024-03-02T12:26:28;24.40;44.20
45785;DHT22;31489;51.404;5.474;2024-03-02T12:28:54;24.30;44.30
45785;DHT22;31489;51.404;5.474;2024-03-02T12:31:20;24.10;44.50
45785;DHT22;31489;51.404;5.474;2024-03-02T12:33:46;23.90;44.80
45785;DHT22;31489;51.404;5.474;2024-03-02T12:36:13;23.80;44.90
45785;DHT22;31489;51.404;5.474;2024-03-02T12:38:43;23.70;44.70
45785;DHT22;31489;51.404;5.474;2024-03-02T12:41:09;23.70;44.70
45785;DHT22;31489;51.404;5.474;2024-03-02T12:43:35;23.70;45.70
45785;DHT22;31489;51.404;5.474;2024-03-02T12:46:01;23.70;45.70
45785;DHT22;31489;51.404;5.474;2024-03-02T12:48:26;23.80;45.70
45785;DHT22;31489;51.404;5.474;2024-03-02T12:50:52;23.90;45.50
45785;DHT22;31489;51.404;5.474;2024-03-02T12:53:18;24.00;45.20
45785;DHT22;31489;51.404;5.474;2024-03-02T12:55:44;24.00;44.70
45785;DHT22;31489;51.404;5.474;2024-03-02T12:58:20;24.10;45.10
45785;DHT22;31489;51.404;5.474;2024-03-02T13:01:08;24.20;44.30
45785;DHT22;31489;51.404;5.474;2024-03-02T13:03:40;24.30;45.00
45785;DHT22;31489;51.404;5.474;2024-03-02T13:06:06;24.40;44.30
45785;DHT22;31489;51.404;5.474;2024-03-02T13:08:35;24.40;44.70
45785;DHT22;31489;51.404;5.474;2024-03-02T13:11:01;24.40;43.40
45785;DHT22;31489;51.404;5.474;2024-03-02T13:13:31;24.50;43.90
45785;DHT22;31489;51.404;5.474;2024-03-02T13:15:56;24.40;43.50
45785;DHT22;31489;51.404;5.474;2024-03-02T13:18:22;24.40;44.20
45785;DHT22;31489;51.404;5.474;2024-03-02T13:20:48;24.50;43.70
45785;DHT22;31489;51.404;5.474;2024-03-02T13:23:14;24.50;43.50
45785;DHT22;31489;51.404;5.474;2024-03-02T13:25:40;24.50;43.60
45785;DHT22;31489;51.404;5.474;2024-03-02T13:28:06;24.60;43.30
45785;DHT22;31489;51.404;5.474;2024-03-02T13:30:32;24.50;43.40
45785;DHT22;31489;51.404;5.474;2024-03-02T13:32:58;24.50;43.30
45785;DHT22;31489;51.404;5.474;2024-03-02T13:35:24;24.50;43.50
45785;DHT22;31489;51.404;5.474;2024-03-02T13:37:52;24.50;43.20
45785;DHT22;31489;51.404;5.474;2024-03-02T13:40:17;24.40;42.60
45785;DHT22;31489;51.404;5.474;2024-03-02T13:42:48;24.40;43.20
45785;DHT22;31489;51.404;5.474;2024-03-02T13:45:14;24.40;42.90
45785;DHT22;31489;51.404;5.474;2024-03-02T13:47:40;24.30;43.20
45785;DHT22;31489;51.404;5.474;2024-03-02T13:50:06;24.20;43.00
45785;DHT22;31489;51.404;5.474;2024-03-02T13:52:32;24.20;43.00
45785;DHT22;31489;51.404;5.474;2024-03-02T13:54:58;24.10;42.90
45785;DHT22;31489;51.404;5.474;2024-03-02T13:57:24;24.10;43.10
45785;DHT22;31489;51.404;5.474;2024-03-02T13:59:49;24.00;43.30
45785;DHT22;31489;51.404;5.474;2024-03-02T14:02:15;23.90;43.40
45785;DHT22;31489;51.404;5.474;2024-03-02T14:04:41;23.90;44.00
45785;DHT22;31489;51.404;5.474;2024-03-02T14:07:07;23.90;43.50
45785;DHT22;31489;51.404;5.474;2024-03-02T14:09:33;23.80;43.30
45785;DHT22;31489;51.404;5.474;2024-03-02T14:11:58;23.80;42.90
45785;DHT22;31489;51.404;5.474;2024-03-02T14:14:26;23.70;42.60
45785;DHT22;31489;51.404;5.474;2024-03-02T14:16:53;23.40;42.50
45785;DHT22;31489;51.404;5.474;2024-03-02T14:19:19;23.20;42.70
45785;DHT22;31489;51.404;5.474;2024-03-02T14:21:47;23.00;42.70
45785;DHT22;31489;51.404;5.474;2024-03-02T14:24:13;22.90;43.30
45785;DHT22;31489;51.404;5.474;2024-03-02T14:26:39;22.80;44.50
45785;DHT22;31489;51.404;5.474;2024-03-02T14:29:06;22.80;43.90
45785;DHT22;31489;51.404;5.474;2024-03-02T14:31:32;22.80;44.70
45785;DHT22;31489;51.404;5.474;2024-03-02T14:33:58;22.80;44.20
45785;DHT22;31489;51.404;5.474;2024-03-02T14:36:23;22.80;44.00
45785;DHT22;31489;51.404;5.474;2024-03-02T14:38:49;22.80;44.00
45785;DHT22;31489;51.404;5.474;2024-03-02T14:41:15;22.70;43.50
45785;DHT22;31489;51.404;5.474;2024-03-02T14:43:41;22.70;43.60
45785;DHT22;31489;51.404;5.474;2024-03-02T14:46:10;22.60;43.60
45785;DHT22;31489;51.404;5.474;2024-03-02T14:48:40;22.40;43.50
45785;DHT22;31489;51.404;5.474;2024-03-02T14:51:06;22.30;43.80
45785;DHT22;31489;51.404;5.474;2024-03-02T14:53:31;22.30;44.30
45785;DHT22;31489;51.404;5.474;2024-03-02T14:55:57;22.20;44.30
45785;DHT22;31489;51.404;5.474;2024-03-02T14:58:23;22.10;44.30
45785;DHT22;31489;51.404;5.474;2024-03-02T15:00:51;22.10;43.90
45785;DHT22;31489;51.404;5.474;2024-03-02T15:03:17;22.00;44.00
45785;DHT22;31489;51.404;5.474;2024-03-02T15:05:43;21.90;43.90
45785;DHT22;31489;51.404;5.474;2024-03-02T15:08:11;21.70;44.20
45785;DHT22;31489;51.404;5.474;2024-03-02T15:10:37;21.50;44.00
45785;DHT22;31489;51.404;5.474;2024-03-02T15:13:03;21.40;44.50
45785;DHT22;31489;51.404;5.474;2024-03-02T15:15:31;21.20;44.70
45785;DHT22;31489;51.404;5.474;2024-03-02T15:17:57;21.00;45.50
45785;DHT22;31489;51.404;5.474;2024-03-02T15:20:23;20.90;45.20
45785;DHT22;31489;51.404;5.474;2024-03-02T15:22:49;20.80;45.40
45785;DHT22;31489;51.404;5.474;2024-03-02T15:25:14;20.60;45.60
45785;DHT22;31489;51.404;5.474;2024-03-02T15:27:42;20.50;45.90
45785;DHT22;31489;51.404;5.474;2024-03-02T15:30:08;20.40;46.00
45785;DHT22;31489;51.404;5.474;2024-03-02T15:32:33;20.30;46.20
45785;DHT22;31489;51.404;5.474;2024-03-02T15:35:00;20.30;46.60
45785;DHT22;31489;51.404;5.474;2024-03-02T15:37:25;20.20;46.70
45785;DHT22;31489;51.404;5.474;2024-03-02T15:39:51;20.20;46.50